| Record Date MM/DD/YYYY | Record Julian Date NNN day of the year | Air Temperature Max (Degrees Fahrenheit F) | Time Max Air Temperature HH:MM:SS This is the time of max air temperature standard time. | Air Temperature Min (Degrees Fahrenheit F) | Time Min Air Temperature HH:MM:SS This is the time of min air temperature standard time. | Air Temperature Observed (Degrees Fahrenheit F) This is an instantaneous reading for air temperature at 7:00:00 standard time. | Relative Humidity Max (Percent) | Time Max Relative Humidity HH:MM:SS This is the time of max relative humidity standard time. | Relative Humidity Min (Percent) | Time Min Relative Humidity HH:MM:SS This is the time of min relative humidity standard time. | Relative Humidity Observed (Percent) This is an instantaneous reading at 7:00:00 standard time. | Precipitation (Inches n.nn) total rain fall that occurred for the day. | Pan Evaporation (Inches n.nn) total evaporation that occured for the day. | Wind Run (Miles) Wind travel for the day. | Wind Speed (Miles Per Hour) Resultant / Average speed for the day. | Wind Direction (Degrees) Resultant Direction for the day | Solar Radiation (Langley's) that occurred for the day. | Soil Temperature Max at 2 inch depth (Degrees Fahrenheit F) that occurred during the day. | Time Max Soil temperature at 2 inches HH:MM:SS This is the time of max 2 inch soil temperature standard time. | Soil Temperature Min at 2 inch depth (Degrees Fahrenheit F) that occurred during the day. | Time Min Soil temperature at 2 inches HH:MM:SS This is the time of min 2 inch soil temperature standard time. | Soil Temperature Observed at 2 inch depth (Degrees Fahrenheit F) This is an instantaneous reading 2 inch soil temperature at 7:00:00 standard time. | Soil Temperature Max at 4 inch depth (Degrees Fahrenheit F) that occurred during the day. | Time Max Soil temperature at 4 inches HH:MM:SS This is the time of max 4 inch soil temperature standard time. | Soil Temperature Min at 4 inch depth (Degrees Fahrenheit F) that occurred during the day. | Time Min Soil temperature at 4 inches HH:MM:SS This is the time of min 4 inch soil temperature standard time. | Soil Temperature Observed at 4 inch depth (Degrees Fahrenheit F) This is an instantaneous reading 4 inch soil temperature at 7:00:00 standard time. | DD50 Degree Days 50 Fahrenheit. | Adjusted DD50 Degree Days 50 Fahrenheit adjusted for latitude. | DD60 Degree Days 60 Fahrenheit. |
|---|---|---|---|---|---|---|---|---|---|---|---|---|---|---|---|---|---|---|---|---|---|---|---|---|---|---|---|---|---|---|
| 08/05/2026 | 217 | 98 | 14:32:05 | 67 | 5:36:04 | 80 | 97 | 5:21:02 | 33 | 11:25:05 | 74 | 0 | 30 | 1.2 | 10 | 553 | 101 | 14:34:03 | 82 | 6:18:00 | 82 | 94 | 15:46:03 | 84 | 7:11:01 | 84 | 32.5 | 27.04 | 22.5 | |
| 08/06/2026 | 218 | 102 | 15:31:04 | 69 | 4:19:03 | 80 | 97 | 4:59:05 | 33 | 15:16:04 | 80 | 0 | 70 | 2.9 | 177 | 579 | 103 | 14:38:04 | 84 | 6:09:01 | 84 | 95 | 15:27:02 | 85 | 7:17:05 | 85 | 35.5 | 27.01 | 25.5 | |
| 08/07/2026 | 219 | 97 | 13:05:00 | 73 | 3:49:02 | 80 | 99 | 5:44:05 | 46 | 15:55:05 | 89 | 0 | 103 | 4.3 | 184 | 508 | 99 | 13:48:02 | 85 | 6:25:04 | 85 | 94 | 15:36:03 | 86 | 7:22:04 | 86 | 35 | 26.98 | 25 | |
| 08/08/2026 | 220 | 99 | 15:52:02 | 73 | 5:18:05 | 81 | 96 | 5:27:01 | 40 | 16:20:04 | 82 | 0 | 81 | 3.4 | 224 | 520 | 101 | 13:54:00 | 85 | 6:01:03 | 85 | 95 | 15:44:00 | 86 | 7:08:05 | 86 | 36 | 26.94 | 26 | |
| 08/09/2026 | 221 | 100 | 15:19:02 | 73 | 4:52:00 | 84 | 97 | 4:26:00 | 43 | 15:31:02 | 74 | 0 | 85 | 3.5 | 195 | 534 | 103 | 14:07:04 | 85 | 6:17:00 | 86 | 96 | 15:38:05 | 87 | 7:37:04 | 87 | 36.5 | 26.91 | 26.5 | |
| 08/10/2026 | 222 | 101 | 14:31:05 | 74 | 5:13:02 | 84 | 95 | 5:11:04 | 43 | 14:34:00 | 78 | 0 | 84 | 3.5 | 185 | 496 | 103 | 13:54:02 | 86 | 6:22:04 | 86 | 96 | 15:35:05 | 87 | 7:36:02 | 87 | 37.5 | 26.88 | 27.5 | |
| 08/11/2026 | 223 | 99 | 15:05:00 | 75 | 5:09:03 | 82 | 97 | 5:10:00 | 44 | 15:05:03 | 84 | 0 | 140 | 5.8 | 200 | 522 | 100 | 14:50:02 | 87 | 6:42:00 | 87 | 95 | 15:33:01 | 88 | 7:31:03 | 88 | 37 | 26.84 | 27 | |
| 08/12/2026 | 224 | 102 | 15:08:04 | 77 | 2:14:04 | 83 | 90 | 5:23:05 | 36 | 16:34:03 | 81 | 0 | 142 | 5.9 | 210 | 561 | 102 | 14:30:04 | 87 | 6:23:03 | 87 | 96 | 15:35:01 | 88 | 6:50:00 | 88 | 39.5 | 26.81 | 29.5 | |
| 08/13/2026 | 225 | 103 | 14:06:01 | 78 | 5:43:05 | 84 | 91 | 5:47:03 | 39 | 14:11:01 | 81 | 0 | 137 | 5.7 | 208 | 559 | 103 | 14:49:01 | 87 | 6:23:04 | 87 | 96 | 15:33:03 | 88 | 7:30:02 | 88 | 40.5 | 26.78 | 30.5 | |
| 08/14/2026 | 226 | 102 | 16:10:02 | 76 | 23:58:04 | 83 | 91 | 5:45:02 | 29 | 16:52:05 | 83 | 0 | 117 | 4.9 | 214 | 572 | 104 | 14:48:01 | 87 | 6:32:01 | 87 | 97 | 15:36:05 | 88 | 7:32:05 | 88 | 39 | 26.74 | 29 | |
| 08/15/2026 | 227 | 103 | 15:32:01 | 73 | 2:29:00 | 82 | 92 | 2:09:00 | 35 | 15:54:00 | 81 | 0 | 90 | 3.7 | 210 | 552 | 105 | 14:09:04 | 86 | 6:17:01 | 86 | 97 | 15:38:01 | 88 | 7:29:04 | 88 | 38 | 26.71 | 28 | |
| 08/16/2026 | 228 | 105 | 14:27:00 | 77 | 5:37:00 | 87 | 90 | 5:38:04 | 34 | 15:14:02 | 71 | 0 | 75 | 3.1 | 232 | 494 | 105 | 15:05:05 | 88 | 5:55:01 | 88 | 98 | 15:46:05 | 89 | 7:32:03 | 89 | 41 | 26.68 | 31 | |
| 08/17/2026 | 229 | 101 | 13:50:00 | 80 | 22:36:04 | 85 | 88 | 22:35:00 | 32 | 15:27:04 | 71 | 0.01 | 103 | 4.3 | 283 | 522 | 104 | 15:01:02 | 88 | 5:59:00 | 89 | 97 | 15:50:01 | 89 | 7:57:04 | 89 | 40.5 | 26.64 | 30.5 | |
| 08/18/2026 | 230 | 102 | 15:39:03 | 75 | 3:43:01 | 80 | 96 | 2:30:02 | 32 | 15:43:04 | 85 | 0 | 64 | 2.7 | 297 | 462 | 104 | 12:40:00 | 88 | 6:38:04 | 88 | 97 | 14:10:03 | 89 | 7:49:03 | 89 | 38.5 | 26.61 | 28.5 | |
| 08/19/2026 | 231 | 104 | 15:23:03 | 78 | 4:47:05 | 85 | 86 | 2:46:04 | 35 | 16:43:00 | 75 | 0 | 117 | 4.9 | 216 | 527 | 105 | 15:17:03 | 88 | 6:19:00 | 88 | 98 | 15:47:01 | 89 | 7:25:00 | 89 | 41 | 26.57 | 31 | |
| 08/20/2026 | 232 | 105 | 14:14:01 | 77 | 0:00:00 | 84 | 92 | 23:48:04 | 38 | 14:15:02 | 77 | 0.05 | 107 | 4.5 | 242 | 471 | 107 | 14:29:00 | 88 | 6:12:01 | 89 | 99 | 15:18:00 | 89 | 7:21:01 | 90 | 41 | 26.54 | 31 | |
| 08/21/2026 | 233 | 97 | 11:15:02 | 75 | 6:01:00 | 80 | 96 | 3:25:01 | 46 | 17:32:01 | 83 | 0.01 | 74 | 3.1 | 25 | 515 | 101 | 13:57:04 | 87 | 6:55:02 | 87 | 96 | 15:45:03 | 89 | 7:53:05 | 89 | 36 | 26.5 | 26 | |
| 08/22/2026 | 234 | 104 | 14:40:00 | 72 | 5:57:01 | 85 | 99 | 23:02:00 | 35 | 15:38:03 | 73 | 0.41 | 62 | 2.6 | 6 | 526 | 106 | 15:11:01 | 85 | 6:18:01 | 85 | 98 | 15:48:03 | 87 | 7:31:00 | 87 | 38 | 26.47 | 28 | |
| 08/23/2026 | 235 | 96 | 15:37:03 | 73 | 5:35:03 | 77 | 99 | 5:40:04 | 48 | 15:42:02 | 90 | 0.03 | 67 | 2.8 | 37 | 544 | 101 | 14:57:02 | 83 | 6:43:03 | 83 | 96 | 15:31:05 | 86 | 7:30:01 | 86 | 34.5 | 26.43 | 24.5 | |
| 08/24/2026 | 236 | 82 | 16:18:05 | 73 | 10:15:04 | 74 | 100 | 9:45:02 | 74 | 3:47:03 | 94 | 0.58 | 80 | 3.3 | 206 | 124 | 86 | 0:00:00 | 80 | 12:04:04 | 83 | 89 | 0:00:00 | 83 | 12:50:02 | 86 | 27.5 | 26.4 | 17.5 | |
| 08/25/2026 | 237 | 98 | 14:49:00 | 72 | 2:56:04 | 75 | 100 | 0:00:00 | 46 | 15:21:02 | 100 | 0 | 63 | 2.6 | 198 | 383 | 93 | 15:13:01 | 79 | 4:18:02 | 80 | 89 | 16:04:00 | 81 | 6:42:00 | 81 | 35 | 26.36 | 25 | |
| 08/26/2026 | 238 | 99 | 12:39:03 | 72 | 23:50:00 | 79 | 98 | 23:57:00 | 41 | 14:52:03 | 92 | 0.17 | 103 | 4.3 | 236 | 495 | 96 | 15:17:02 | 81 | 6:31:00 | 81 | 91 | 15:49:03 | 82 | 7:24:04 | 83 | 35.5 | 26.33 | 25.5 | |
| 08/27/2026 | 239 | 93 | 16:09:01 | 72 | 2:49:02 | 74 | 100 | 6:29:00 | 46 | 16:17:01 | 99 | 0 | 58 | 2.4 | 359 | 462 | 96 | 13:54:04 | 80 | 6:32:01 | 80 | 92 | 15:41:00 | 82 | 8:04:05 | 82 | 32.5 | 26.29 | 22.5 | |
| 08/28/2026 | 240 | 95 | 13:23:03 | 72 | 5:13:01 | 77 | 100 | 4:05:01 | 40 | 14:10:01 | 93 | 0 | 67 | 2.8 | 38 | 463 | 96 | 14:20:04 | 81 | 6:33:00 | 81 | 92 | 14:53:02 | 83 | 7:44:05 | 83 | 33.5 | 26.26 | 23.5 | |
| 08/29/2026 | 241 | 97 | 14:57:03 | 66 | 5:38:00 | 75 | 98 | 5:43:04 | 32 | 14:54:05 | 83 | 0 | 42 | 1.8 | 12 | 555 | 99 | 14:57:01 | 78 | 6:26:00 | 78 | 93 | 15:41:05 | 81 | 7:45:00 | 81 | 31.5 | 26.22 | 21.5 | |
| 08/30/2026 | 242 | 100 | 15:15:04 | 68 | 5:17:04 | 76 | 96 | 5:25:00 | 35 | 10:54:02 | 77 | 0 | 44 | 1.8 | 167 | 488 | 98 | 15:30:00 | 79 | 7:03:01 | 80 | 93 | 16:05:02 | 82 | 7:58:01 | 82 | 34 | 26.19 | 24 | |
| 08/31/2026 | 243 | 102 | 15:33:03 | 73 | 5:45:05 | 85 | 97 | 5:33:00 | 36 | 15:09:02 | 72 | 0 | 46 | 1.9 | 156 | 534 | 101 | 14:54:01 | 82 | 6:39:05 | 83 | 95 | 15:56:02 | 84 | 7:34:02 | 84 | 37.5 | 26.15 | 27.5 | |
| 09/01/2026 | 244 | 102 | 14:30:02 | 74 | 4:55:01 | 86 | 95 | 5:08:02 | 38 | 15:01:04 | 73 | 0 | 46 | 1.9 | 159 | 519 | 103 | 14:59:04 | 84 | 6:42:00 | 84 | 97 | 15:57:03 | 86 | 7:19:02 | 86 | 38 | 26.12 | 28 | |
| 09/02/2026 | 245 | 102 | 14:30:04 | 74 | 5:26:01 | 85 | 99 | 5:09:04 | 41 | 14:45:03 | 79 | 0.16 | 37 | 1.5 | 142 | 452 | 100 | 15:07:04 | 85 | 6:31:05 | 85 | 95 | 15:39:02 | 87 | 7:30:03 | 87 | 38 | 26.08 | 28 | |
| 09/03/2026 | 246 | 103 | 14:03:00 | 74 | 5:27:02 | 84 | 100 | 5:45:02 | 38 | 14:03:02 | 82 | 0 | 51 | 2.1 | 232 | 482 | 101 | 14:26:01 | 83 | 6:36:04 | 84 | 95 | 14:53:01 | 86 | 7:18:00 | 86 | 38.5 | 26.04 | 28.5 | |
| Average | 99.77 | 73.5 | 81.2 | 95.7 | 39.6 | 81.87 | 0.05 | 79.5 | 499.13 | 100.87 | 84.27 | 84.6 | 95.03 | 85.97 | 86.13 | 36.63 | 26.55 | 26.63 | ||||||||||||
| Total | 1.42 | 1099 | 796.52 | 799 |